createdAt,value
2023-02-21T00:00:14.074Z,1003.06
2023-02-21T00:01:14.386Z,1003.00
2023-02-21T00:02:14.063Z,1003.00
2023-02-21T00:03:15.067Z,1002.98
2023-02-21T00:04:15.014Z,1002.80
2023-02-21T00:05:14.036Z,1002.91
2023-02-21T00:06:14.015Z,1002.94
2023-02-21T00:07:13.985Z,1003.01
2023-02-21T00:08:14.965Z,1003.03
2023-02-21T00:09:13.955Z,1002.85
2023-02-21T00:10:14.960Z,1003.02
2023-02-21T00:11:15.231Z,1002.92
2023-02-21T00:12:13.943Z,1003.03
2023-02-21T00:13:13.926Z,1002.99
2023-02-21T00:14:13.877Z,1003.02
2023-02-21T00:15:14.882Z,1003.03
2023-02-21T00:16:13.904Z,1002.99
2023-02-21T00:17:13.871Z,1002.99
2023-02-21T00:18:13.878Z,1002.95
2023-02-21T00:19:13.839Z,1002.91
2023-02-21T00:20:14.754Z,1002.97
2023-02-21T00:21:14.144Z,1003.02
2023-02-21T00:22:13.806Z,1002.88
2023-02-21T00:23:13.824Z,1002.96
2023-02-21T00:24:13.776Z,1003.03
2023-02-21T00:25:13.770Z,1002.83
2023-02-21T00:26:13.778Z,1002.95
2023-02-21T00:27:13.778Z,1002.98
2023-02-21T00:28:13.736Z,1002.79
2023-02-21T00:29:14.754Z,1002.82
2023-02-21T00:30:13.724Z,1002.95
2023-02-21T00:31:14.058Z,1002.86
2023-02-21T00:32:13.709Z,1002.88
2023-02-21T00:33:13.833Z,1002.87
2023-02-21T00:34:13.718Z,1002.87
2023-02-21T00:35:13.694Z,1002.83
2023-02-21T00:36:14.649Z,1002.83
2023-02-21T00:37:13.635Z,1002.87
2023-02-21T00:38:13.638Z,1002.77
2023-02-21T00:39:13.612Z,1002.81
2023-02-21T00:40:13.658Z,1002.78
2023-02-21T00:41:13.883Z,1002.86
2023-02-21T00:42:13.587Z,1002.81
2023-02-21T00:43:13.574Z,1002.78
2023-02-21T00:44:13.551Z,1002.81
2023-02-21T00:45:13.572Z,1002.77
2023-02-21T00:46:13.573Z,1002.77
2023-02-21T00:47:13.552Z,1002.81
2023-02-21T00:48:13.497Z,1002.82
2023-02-21T00:49:14.496Z,1002.86
2023-02-21T00:50:13.510Z,1002.86
2023-02-21T00:51:14.551Z,1002.80
2023-02-21T00:52:14.468Z,1002.90
2023-02-21T00:53:14.472Z,1002.83
2023-02-21T00:54:13.464Z,1002.77
2023-02-21T00:55:13.484Z,1002.85
2023-02-21T00:56:13.453Z,1002.79
2023-02-21T00:57:14.427Z,1002.79
2023-02-21T00:58:13.416Z,1002.86
2023-02-21T00:59:13.416Z,1002.77
2023-02-21T01:00:13.413Z,1002.83
2023-02-21T01:01:13.837Z,1002.75
2023-02-21T01:02:13.379Z,1002.69
2023-02-21T01:03:13.341Z,1002.68
2023-02-21T01:04:14.207Z,1002.71
2023-02-21T01:05:13.327Z,1002.75
2023-02-21T01:06:14.336Z,1002.71
2023-02-21T01:07:14.335Z,1002.63
2023-02-21T01:08:13.291Z,1002.72
2023-02-21T01:09:13.288Z,1002.72
2023-02-21T01:10:13.284Z,1002.65
2023-02-21T01:11:13.530Z,1002.69
2023-02-21T01:12:13.262Z,1002.62
2023-02-21T01:13:13.304Z,1002.60
2023-02-21T01:14:13.235Z,1002.64
2023-02-21T01:15:13.225Z,1002.64
2023-02-21T01:16:13.248Z,1002.69
2023-02-21T01:17:13.818Z,1002.69
2023-02-21T01:18:13.188Z,1002.66
2023-02-21T01:19:14.224Z,1002.67
2023-02-21T01:20:13.155Z,1002.71
2023-02-21T01:21:13.543Z,1002.58
2023-02-21T01:22:13.135Z,1002.77
2023-02-21T01:23:13.159Z,1002.71
2023-02-21T01:24:13.124Z,1002.68
2023-02-21T01:25:13.114Z,1002.76
2023-02-21T01:26:13.125Z,1002.67
2023-02-21T01:27:13.103Z,1002.78
2023-02-21T01:28:14.103Z,1002.75
2023-02-21T01:29:13.072Z,1002.77
2023-02-21T01:30:14.092Z,1002.79
2023-02-21T01:31:13.501Z,1002.74
2023-02-21T01:32:13.076Z,1002.69
2023-02-21T01:33:13.061Z,1002.83
2023-02-21T01:34:13.033Z,1002.84
2023-02-21T01:35:13.019Z,1002.73
2023-02-21T01:36:12.996Z,1002.79
2023-02-21T01:37:13.984Z,1002.77
2023-02-21T01:38:12.977Z,1002.79
2023-02-21T01:39:12.966Z,1002.85
2023-02-21T01:40:12.987Z,1002.83
2023-02-21T01:41:14.311Z,1002.83
2023-02-21T01:42:12.923Z,1002.79
2023-02-21T01:43:12.906Z,1002.85
2023-02-21T01:44:12.928Z,1002.86
2023-02-21T01:45:12.910Z,1002.86
2023-02-21T01:46:12.942Z,1002.87
2023-02-21T01:47:12.881Z,1002.88
2023-02-21T01:48:13.862Z,1002.92
2023-02-21T01:49:12.871Z,1002.89
2023-02-21T01:50:12.906Z,1002.87
2023-02-21T01:51:13.240Z,1002.78
2023-02-21T01:52:12.836Z,1002.84
2023-02-21T01:53:12.808Z,1002.87
2023-02-21T01:54:12.807Z,1002.83
2023-02-21T01:55:12.795Z,1002.86
2023-02-21T01:56:12.781Z,1002.82
2023-02-21T01:57:12.797Z,1002.74
2023-02-21T01:58:12.756Z,1002.75
2023-02-21T01:59:12.796Z,1002.77
2023-02-21T02:00:12.743Z,1002.77
2023-02-21T02:01:13.071Z,1002.76
2023-02-21T02:02:12.718Z,1002.73
2023-02-21T02:03:12.716Z,1002.74
2023-02-21T02:04:12.732Z,1002.72
2023-02-21T02:05:12.697Z,1002.77
2023-02-21T02:06:12.663Z,1002.71
2023-02-21T02:07:12.657Z,1002.69
2023-02-21T02:08:13.681Z,1002.69
2023-02-21T02:09:12.647Z,1002.62
2023-02-21T02:10:12.610Z,1002.68
2023-02-21T02:11:12.960Z,1002.64
2023-02-21T02:12:12.600Z,1002.64
2023-02-21T02:13:12.617Z,1002.58
2023-02-21T02:14:12.590Z,1002.53
2023-02-21T02:15:13.572Z,1002.57
2023-02-21T02:16:12.596Z,1002.51
2023-02-21T02:17:16.275Z,1002.46
2023-02-21T02:18:12.525Z,1002.35
2023-02-21T02:19:12.576Z,1002.38
2023-02-21T02:20:13.507Z,1002.43
2023-02-21T02:21:12.945Z,1002.47
2023-02-21T02:22:12.511Z,1002.33
2023-02-21T02:23:12.483Z,1002.39
2023-02-21T02:24:12.505Z,1002.39
2023-02-21T02:25:12.514Z,1002.34
2023-02-21T02:26:12.460Z,1002.35
2023-02-21T02:27:12.451Z,1002.41
2023-02-21T02:28:13.431Z,1002.36
2023-02-21T02:29:13.414Z,1002.37
2023-02-21T02:30:13.980Z,1002.38
2023-02-21T02:31:12.651Z,1002.35
2023-02-21T02:32:13.402Z,1002.34
2023-02-21T02:33:12.410Z,1002.30
2023-02-21T02:34:12.367Z,1002.27
2023-02-21T02:35:12.366Z,1002.33
2023-02-21T02:36:12.336Z,1002.30
2023-02-21T02:37:12.367Z,1002.31
2023-02-21T02:38:12.359Z,1002.27
2023-02-21T02:39:12.310Z,1002.31
2023-02-21T02:40:12.317Z,1002.35
2023-02-21T02:41:12.543Z,1002.35
2023-02-21T02:42:12.278Z,1002.44
2023-02-21T02:43:12.299Z,1002.37
2023-02-21T02:44:13.253Z,1002.41
2023-02-21T02:45:12.267Z,1002.37
2023-02-21T02:46:13.242Z,1002.36
2023-02-21T02:47:13.220Z,1002.29
2023-02-21T02:48:12.223Z,1002.31
2023-02-21T02:49:12.197Z,1002.25
2023-02-21T02:50:12.173Z,1002.20
2023-02-21T02:51:12.343Z,1002.27
2023-02-21T02:52:12.158Z,1002.24
2023-02-21T02:53:12.165Z,1002.27
2023-02-21T02:54:12.137Z,1002.20
2023-02-21T02:55:12.135Z,1002.36
2023-02-21T02:56:12.131Z,1002.36
2023-02-21T02:57:12.152Z,1002.25
2023-02-21T02:58:12.097Z,1002.24
2023-02-21T02:59:13.088Z,1002.23
2023-02-21T03:00:12.072Z,1002.21
2023-02-21T03:01:12.399Z,1002.31
2023-02-21T03:02:12.056Z,1002.32
2023-02-21T03:03:12.062Z,1002.22
2023-02-21T03:04:12.042Z,1002.14
2023-02-21T03:05:12.016Z,1002.19
2023-02-21T03:06:12.010Z,1002.25
2023-02-21T03:07:12.022Z,1002.18
2023-02-21T03:08:12.973Z,1002.19
2023-02-21T03:09:12.971Z,1002.16
2023-02-21T03:10:12.039Z,1002.15
2023-02-21T03:11:12.362Z,1002.16
2023-02-21T03:12:11.931Z,1002.17
2023-02-21T03:13:11.952Z,1002.16
2023-02-21T03:14:12.903Z,1002.22
2023-02-21T03:15:11.892Z,1002.11
2023-02-21T03:16:11.965Z,1002.15
2023-02-21T03:17:11.921Z,1002.17
2023-02-21T03:18:12.863Z,1002.12
2023-02-21T03:19:11.855Z,1002.08
2023-02-21T03:20:11.847Z,1002.09
2023-02-21T03:21:12.110Z,1002.08
2023-02-21T03:22:12.841Z,1002.11
2023-02-21T03:23:11.812Z,1002.07
2023-02-21T03:24:11.816Z,1002.07
2023-02-21T03:25:11.855Z,1001.97
2023-02-21T03:26:11.835Z,1002.10
2023-02-21T03:27:11.853Z,1002.06
2023-02-21T03:28:11.772Z,1002.14
2023-02-21T03:29:11.756Z,1002.08
2023-02-21T03:30:11.768Z,1002.13
2023-02-21T03:31:12.941Z,1002.14
2023-02-21T03:32:11.727Z,1002.10
2023-02-21T03:33:11.700Z,1002.13
2023-02-21T03:34:11.687Z,1002.07
2023-02-21T03:35:11.747Z,1002.13
2023-02-21T03:36:11.694Z,1002.13
2023-02-21T03:37:11.661Z,1002.08
2023-02-21T03:38:11.661Z,1002.07
2023-02-21T03:39:11.655Z,1002.09
2023-02-21T03:40:11.631Z,1002.11
2023-02-21T03:41:13.050Z,1002.08
2023-02-21T03:42:11.668Z,1002.13
2023-02-21T03:43:11.598Z,1002.07
2023-02-21T03:44:11.598Z,1002.14
2023-02-21T03:45:11.578Z,1002.11
2023-02-21T03:46:11.659Z,1002.05
2023-02-21T03:47:11.570Z,1002.08
2023-02-21T03:48:13.903Z,1002.15
2023-02-21T03:49:11.611Z,1002.13
2023-02-21T03:50:11.529Z,1002.16
2023-02-21T03:51:11.530Z,1002.06
2023-02-21T03:52:11.492Z,1002.05
2023-02-21T03:53:11.506Z,1002.07
2023-02-21T03:54:11.519Z,1002.06
2023-02-21T03:55:11.518Z,1002.13
2023-02-21T03:56:11.578Z,1002.08
2023-02-21T03:57:11.486Z,1002.02
2023-02-21T03:58:11.435Z,1002.11
2023-02-21T03:59:11.516Z,1002.19
2023-02-21T04:00:12.102Z,1002.09
2023-02-21T04:01:11.505Z,1002.16
2023-02-21T04:02:11.516Z,1002.13
2023-02-21T04:03:11.377Z,1002.09
2023-02-21T04:04:12.426Z,1002.12
2023-02-21T04:05:11.411Z,1002.15
2023-02-21T04:06:11.359Z,1002.13
2023-02-21T04:07:11.339Z,1002.15
2023-02-21T04:08:11.402Z,1002.06
2023-02-21T04:09:11.317Z,1002.12
2023-02-21T04:10:11.323Z,1002.12
2023-02-21T04:11:11.351Z,1002.11
2023-02-21T04:12:11.333Z,1002.09
2023-02-21T04:13:11.330Z,1002.14
2023-02-21T04:14:11.266Z,1002.16
2023-02-21T04:15:12.101Z,1002.14
2023-02-21T04:16:11.284Z,1002.15
2023-02-21T04:17:11.265Z,1002.13
2023-02-21T04:18:12.243Z,1002.11
2023-02-21T04:19:11.201Z,1002.14
2023-02-21T04:20:12.220Z,1002.12
2023-02-21T04:21:11.176Z,1002.17
2023-02-21T04:22:11.187Z,1002.17
2023-02-21T04:23:11.207Z,1002.19
2023-02-21T04:24:11.221Z,1002.11
2023-02-21T04:25:11.158Z,1002.07
2023-02-21T04:26:11.153Z,1002.13
2023-02-21T04:27:11.129Z,1002.02
2023-02-21T04:28:12.112Z,1002.09
2023-02-21T04:29:11.231Z,1002.07
2023-02-21T04:30:11.150Z,1002.05
2023-02-21T04:31:11.080Z,1002.05
2023-02-21T04:32:11.196Z,1002.05
2023-02-21T04:33:12.124Z,1001.97
2023-02-21T04:34:12.346Z,1001.99
2023-02-21T04:35:11.034Z,1001.98
2023-02-21T04:36:11.042Z,1002.03
2023-02-21T04:37:11.021Z,1001.96
2023-02-21T04:38:18.660Z,1002.02
2023-02-21T04:39:11.001Z,1001.92
2023-02-21T04:40:10.991Z,1001.96
2023-02-21T04:41:12.097Z,1001.93
2023-02-21T04:42:10.941Z,1002.06
2023-02-21T04:43:11.955Z,1001.96
2023-02-21T04:44:10.978Z,1001.91
2023-02-21T04:45:11.934Z,1001.88
2023-02-21T04:46:11.004Z,1001.91
2023-02-21T04:47:10.891Z,1001.87
2023-02-21T04:48:10.908Z,1001.92
2023-02-21T04:49:10.888Z,1001.81
2023-02-21T04:50:10.925Z,1001.87
2023-02-21T04:51:15.346Z,1001.89
2023-02-21T04:52:10.844Z,1001.90
2023-02-21T04:53:10.840Z,1001.89
2023-02-21T04:54:13.683Z,1001.93
2023-02-21T04:55:10.814Z,1001.89
2023-02-21T04:56:10.862Z,1001.86
2023-02-21T04:57:10.806Z,1001.92
2023-02-21T04:58:10.775Z,1001.92
2023-02-21T04:59:10.782Z,1001.92
2023-02-21T05:00:10.759Z,1001.91
2023-02-21T05:01:10.811Z,1001.92
2023-02-21T05:02:10.766Z,1001.94
2023-02-21T05:03:11.731Z,1001.88
2023-02-21T05:04:10.827Z,1001.91
2023-02-21T05:05:10.747Z,1001.92
2023-02-21T05:06:10.681Z,1001.89
2023-02-21T05:07:10.826Z,1001.92
2023-02-21T05:08:11.669Z,1001.90
2023-02-21T05:09:10.641Z,1001.88
2023-02-21T05:10:11.676Z,1001.93
2023-02-21T05:11:10.638Z,1001.93
2023-02-21T05:12:10.638Z,1001.94
2023-02-21T05:13:10.640Z,1001.95
2023-02-21T05:14:11.598Z,1002.01
2023-02-21T05:15:10.633Z,1001.92
2023-02-21T05:16:10.697Z,1001.98
2023-02-21T05:17:10.583Z,1001.94
2023-02-21T05:18:10.605Z,1001.96
2023-02-21T05:19:10.565Z,1002.00
2023-02-21T05:20:10.598Z,1002.02
2023-02-21T05:21:10.534Z,1002.00
2023-02-21T05:22:11.538Z,1002.01
2023-02-21T05:23:13.858Z,1002.07
2023-02-21T05:24:10.511Z,1002.04
2023-02-21T05:25:10.531Z,1002.05
2023-02-21T05:26:10.497Z,1002.03
2023-02-21T05:27:10.451Z,1002.07
2023-02-21T05:28:10.450Z,1002.03
2023-02-21T05:29:10.437Z,1002.12
2023-02-21T05:30:11.464Z,1002.09
2023-02-21T05:31:10.436Z,1002.08
2023-02-21T05:32:10.558Z,1002.12
2023-02-21T05:33:10.455Z,1002.09
2023-02-21T05:34:10.399Z,1002.13
2023-02-21T05:35:11.374Z,1002.10
2023-02-21T05:36:10.372Z,1002.11
2023-02-21T05:37:11.360Z,1002.07
2023-02-21T05:38:10.365Z,1002.09
2023-02-21T05:39:11.392Z,1002.16
2023-02-21T05:40:10.316Z,1002.17
2023-02-21T05:41:10.319Z,1002.16
2023-02-21T05:42:10.319Z,1002.11
2023-02-21T05:43:10.323Z,1002.12
2023-02-21T05:44:10.304Z,1002.09
2023-02-21T05:45:11.057Z,1002.20
2023-02-21T05:46:10.312Z,1002.18
2023-02-21T05:47:10.264Z,1002.14
2023-02-21T05:48:10.232Z,1002.13
2023-02-21T05:49:10.263Z,1002.19
2023-02-21T05:50:10.254Z,1002.17
2023-02-21T05:51:10.196Z,1002.15
2023-02-21T05:52:10.193Z,1002.19
2023-02-21T05:53:10.330Z,1002.19
2023-02-21T05:54:10.247Z,1002.22
2023-02-21T05:55:10.185Z,1002.23
2023-02-21T05:56:10.666Z,1002.21
2023-02-21T05:57:10.130Z,1002.25
2023-02-21T05:58:11.113Z,1002.21
2023-02-21T05:59:10.124Z,1002.30
2023-02-21T06:00:10.133Z,1002.29
2023-02-21T06:01:10.089Z,1002.36
2023-02-21T06:02:11.138Z,1002.27
2023-02-21T06:03:11.124Z,1002.37
2023-02-21T06:04:10.040Z,1002.47
2023-02-21T06:05:10.179Z,1002.34
2023-02-21T06:06:10.049Z,1002.42
2023-02-21T06:07:10.038Z,1002.42
2023-02-21T06:08:11.495Z,1002.44
2023-02-21T06:09:10.016Z,1002.42
2023-02-21T06:10:10.011Z,1002.46
2023-02-21T06:11:10.011Z,1002.49
2023-02-21T06:12:10.953Z,1002.57
2023-02-21T06:13:09.978Z,1002.53
2023-02-21T06:14:09.948Z,1002.47
2023-02-21T06:15:09.933Z,1002.52
2023-02-21T06:16:10.040Z,1002.55
2023-02-21T06:17:09.935Z,1002.57
2023-02-21T06:18:09.996Z,1002.58
2023-02-21T06:19:09.923Z,1002.59
2023-02-21T06:20:09.913Z,1002.53
2023-02-21T06:21:09.901Z,1002.73
2023-02-21T06:22:09.880Z,1002.59
2023-02-21T06:23:09.854Z,1002.62
2023-02-21T06:24:09.839Z,1002.70
2023-02-21T06:25:09.851Z,1002.65
2023-02-21T06:26:09.801Z,1002.65
2023-02-21T06:27:09.801Z,1002.73
2023-02-21T06:28:09.794Z,1002.66
2023-02-21T06:29:09.811Z,1002.76
2023-02-21T06:30:09.860Z,1002.71
2023-02-21T06:31:09.877Z,1002.79
2023-02-21T06:32:10.789Z,1002.82
2023-02-21T06:33:10.733Z,1002.76
2023-02-21T06:34:10.729Z,1002.78
2023-02-21T06:35:09.721Z,1002.80
2023-02-21T06:36:09.718Z,1002.83
2023-02-21T06:37:10.703Z,1002.82
2023-02-21T06:38:09.725Z,1002.78
2023-02-21T06:39:09.727Z,1002.82
2023-02-21T06:40:09.680Z,1002.82
2023-02-21T06:41:09.664Z,1002.86
2023-02-21T06:42:10.643Z,1002.82
2023-02-21T06:43:10.624Z,1002.83
2023-02-21T06:44:09.651Z,1002.82
2023-02-21T06:45:09.646Z,1002.84
2023-02-21T06:46:09.699Z,1002.73
2023-02-21T06:47:09.604Z,1002.75
2023-02-21T06:48:09.603Z,1002.75
2023-02-21T06:49:09.563Z,1002.76
2023-02-21T06:50:10.400Z,1002.81
2023-02-21T06:51:09.573Z,1002.87
2023-02-21T06:52:09.524Z,1002.89
2023-02-21T06:53:10.528Z,1002.92
2023-02-21T06:54:09.533Z,1002.90
2023-02-21T06:55:09.513Z,1002.94
2023-02-21T06:56:09.518Z,1002.96
2023-02-21T06:57:10.480Z,1003.03
2023-02-21T06:58:10.486Z,1003.01
2023-02-21T06:59:09.505Z,1003.00
2023-02-21T07:00:09.472Z,1003.06
2023-02-21T07:01:09.426Z,1003.05
2023-02-21T07:02:10.435Z,1003.06
2023-02-21T07:03:09.488Z,1003.11
2023-02-21T07:04:09.394Z,1003.06
2023-02-21T07:05:09.410Z,1003.04
2023-02-21T07:06:09.427Z,1003.13
2023-02-21T07:07:10.367Z,1003.07
2023-02-21T07:08:10.365Z,1003.04
2023-02-21T07:09:09.353Z,1003.07
2023-02-21T07:10:09.365Z,1003.02
2023-02-21T07:11:10.377Z,1003.10
2023-02-21T07:12:09.338Z,1003.08
2023-02-21T07:13:09.359Z,1003.12
2023-02-21T07:14:10.344Z,1003.15
2023-02-21T07:15:10.287Z,1003.14
2023-02-21T07:16:09.391Z,1003.11
2023-02-21T07:17:09.270Z,1003.14
2023-02-21T07:18:10.251Z,1003.11
2023-02-21T07:19:09.313Z,1003.14
2023-02-21T07:20:10.222Z,1003.14
2023-02-21T07:21:09.240Z,1003.15
2023-02-21T07:22:09.212Z,1003.21
2023-02-21T07:23:09.205Z,1003.18
2023-02-21T07:24:09.236Z,1003.22
2023-02-21T07:25:09.203Z,1003.18
2023-02-21T07:26:09.173Z,1003.17
2023-02-21T07:27:09.178Z,1003.20
2023-02-21T07:28:09.150Z,1003.19
2023-02-21T07:29:09.321Z,1003.17
2023-02-21T07:30:09.166Z,1003.14
2023-02-21T07:31:09.100Z,1003.12
2023-02-21T07:32:09.226Z,1003.10
2023-02-21T07:33:09.072Z,1003.15
2023-02-21T07:34:09.090Z,1003.18
2023-02-21T07:35:10.052Z,1003.15
2023-02-21T07:36:09.087Z,1003.18
2023-02-21T07:37:09.032Z,1003.11
2023-02-21T07:38:09.051Z,1003.22
2023-02-21T07:39:10.041Z,1003.24
2023-02-21T07:40:09.072Z,1003.23
2023-02-21T07:41:09.033Z,1003.21
2023-02-21T07:42:08.976Z,1003.15
2023-02-21T07:43:09.964Z,1003.19
2023-02-21T07:44:08.998Z,1003.18
2023-02-21T07:45:08.981Z,1003.20
2023-02-21T07:46:10.045Z,1003.23
2023-02-21T07:47:08.915Z,1003.26
2023-02-21T07:48:08.905Z,1003.20
2023-02-21T07:49:09.909Z,1003.22
2023-02-21T07:50:08.919Z,1003.25
2023-02-21T07:51:09.895Z,1003.21
2023-02-21T07:52:08.950Z,1003.16
2023-02-21T07:53:11.143Z,1003.18
2023-02-21T07:54:09.861Z,1003.18
2023-02-21T07:55:08.858Z,1003.29
2023-02-21T07:56:08.856Z,1003.32
2023-02-21T07:57:08.841Z,1003.33
2023-02-21T07:58:08.849Z,1003.33
2023-02-21T07:59:08.804Z,1003.32
2023-02-21T08:00:08.798Z,1003.34
2023-02-21T08:01:08.798Z,1003.31
2023-02-21T08:02:08.776Z,1003.42
2023-02-21T08:03:08.811Z,1003.44
2023-02-21T08:04:08.754Z,1003.40
2023-02-21T08:05:08.798Z,1003.48
2023-02-21T08:06:08.744Z,1003.36
2023-02-21T08:07:09.716Z,1003.41
2023-02-21T08:08:08.696Z,1003.44
2023-02-21T08:09:08.744Z,1003.42
2023-02-21T08:10:08.663Z,1003.38
2023-02-21T08:11:08.666Z,1003.39
2023-02-21T08:12:08.653Z,1003.46
2023-02-21T08:13:08.664Z,1003.46
2023-02-21T08:14:08.637Z,1003.41
2023-02-21T08:15:08.639Z,1003.40
2023-02-21T08:16:08.656Z,1003.45
2023-02-21T08:17:08.604Z,1003.47
2023-02-21T08:18:09.595Z,1003.44
2023-02-21T08:19:08.595Z,1003.44
2023-02-21T08:20:08.574Z,1003.47
2023-02-21T08:21:09.600Z,1003.48
2023-02-21T08:22:09.580Z,1003.50
2023-02-21T08:23:08.574Z,1003.48
2023-02-21T08:24:08.542Z,1003.50
2023-02-21T08:25:09.525Z,1003.51
2023-02-21T08:26:08.508Z,1003.53
2023-02-21T08:27:09.544Z,1003.46
2023-02-21T08:28:08.512Z,1003.55
2023-02-21T08:29:08.469Z,1003.52
2023-02-21T08:30:08.565Z,1003.53
2023-02-21T08:31:08.472Z,1003.54
2023-02-21T08:32:08.482Z,1003.55
2023-02-21T08:33:08.475Z,1003.54
2023-02-21T08:34:08.408Z,1003.63
2023-02-21T08:35:09.953Z,1003.59
2023-02-21T08:36:08.395Z,1003.57
2023-02-21T08:37:08.591Z,1003.56
2023-02-21T08:38:08.416Z,1003.60
2023-02-21T08:39:08.382Z,1003.56
2023-02-21T08:40:08.347Z,1003.67
2023-02-21T08:41:08.434Z,1003.62
2023-02-21T08:42:08.326Z,1003.62
2023-02-21T08:43:08.319Z,1003.56
2023-02-21T08:44:08.973Z,1003.58
2023-02-21T08:45:08.292Z,1003.64
2023-02-21T08:46:08.267Z,1003.62
2023-02-21T08:47:08.323Z,1003.64
2023-02-21T08:48:08.255Z,1003.60
2023-02-21T08:49:08.265Z,1003.64
2023-02-21T08:50:08.264Z,1003.64
2023-02-21T08:51:08.263Z,1003.65
2023-02-21T08:52:08.206Z,1003.69
2023-02-21T08:53:08.340Z,1003.70
2023-02-21T08:54:08.200Z,1003.63
2023-02-21T08:55:08.238Z,1003.66
2023-02-21T08:56:08.207Z,1003.61
2023-02-21T08:57:08.446Z,1003.60
2023-02-21T08:58:08.152Z,1003.64
2023-02-21T08:59:08.173Z,1003.62
2023-02-21T09:00:08.149Z,1003.66
2023-02-21T09:01:08.202Z,1003.60
2023-02-21T09:02:08.160Z,1003.70
2023-02-21T09:03:09.139Z,1003.70
2023-02-21T09:04:08.101Z,1003.60
2023-02-21T09:05:08.088Z,1003.64
2023-02-21T09:06:08.087Z,1003.70
2023-02-21T09:07:08.051Z,1003.70
2023-02-21T09:08:08.046Z,1003.65
2023-02-21T09:09:08.062Z,1003.63
2023-02-21T09:10:09.039Z,1003.60
2023-02-21T09:11:08.139Z,1003.70
2023-02-21T09:12:08.009Z,1003.66
2023-02-21T09:13:08.002Z,1003.72
2023-02-21T09:14:09.012Z,1003.72
2023-02-21T09:15:07.995Z,1003.71
2023-02-21T09:16:08.143Z,1003.71
2023-02-21T09:17:07.963Z,1003.68
2023-02-21T09:18:07.932Z,1003.66
2023-02-21T09:19:07.918Z,1003.67
2023-02-21T09:20:07.970Z,1003.61
2023-02-21T09:21:07.947Z,1003.69
2023-02-21T09:22:07.886Z,1003.61
2023-02-21T09:23:07.904Z,1003.56
2023-02-21T09:24:07.952Z,1003.62
2023-02-21T09:25:07.863Z,1003.58
2023-02-21T09:26:08.931Z,1003.58
2023-02-21T09:27:08.862Z,1003.62
2023-02-21T09:28:07.902Z,1003.55
2023-02-21T09:29:07.885Z,1003.58
2023-02-21T09:30:07.830Z,1003.54
2023-02-21T09:31:07.806Z,1003.54
2023-02-21T09:32:07.848Z,1003.54
2023-02-21T09:33:08.791Z,1003.50
2023-02-21T09:34:07.760Z,1003.56
2023-02-21T09:35:07.794Z,1003.50
2023-02-21T09:36:08.820Z,1003.49
2023-02-21T09:37:07.726Z,1003.49
2023-02-21T09:38:07.714Z,1003.54
2023-02-21T09:39:08.740Z,1003.56
2023-02-21T09:40:07.731Z,1003.62
2023-02-21T09:41:07.704Z,1003.56
2023-02-21T09:42:07.671Z,1003.61
2023-02-21T09:43:07.672Z,1003.59
2023-02-21T09:44:08.717Z,1003.60
2023-02-21T09:45:08.670Z,1003.53
2023-02-21T09:46:07.693Z,1003.52
2023-02-21T09:47:07.621Z,1003.54
2023-02-21T09:48:07.612Z,1003.57
2023-02-21T09:49:07.632Z,1003.54
2023-02-21T09:50:07.615Z,1003.68
2023-02-21T09:51:07.578Z,1003.68
2023-02-21T09:52:07.598Z,1003.72
2023-02-21T09:53:07.550Z,1003.69
2023-02-21T09:54:08.574Z,1003.71
2023-02-21T09:55:07.540Z,1003.67
2023-02-21T09:56:07.531Z,1003.60
2023-02-21T09:57:07.501Z,1003.71
2023-02-21T09:58:08.489Z,1003.65
2023-02-21T09:59:07.521Z,1003.68
2023-02-21T10:00:08.497Z,1003.69
2023-02-21T10:01:08.521Z,1003.66
2023-02-21T10:02:07.445Z,1003.74
2023-02-21T10:03:07.448Z,1003.72
2023-02-21T10:04:07.420Z,1003.76
2023-02-21T10:05:07.595Z,1003.74
2023-02-21T10:06:07.429Z,1003.71
2023-02-21T10:07:08.395Z,1003.71
2023-02-21T10:08:07.388Z,1003.76
2023-02-21T10:09:07.394Z,1003.74
2023-02-21T10:10:07.411Z,1003.79
2023-02-21T10:11:07.351Z,1003.80
2023-02-21T10:12:08.331Z,1003.75
2023-02-21T10:13:08.314Z,1003.76
2023-02-21T10:14:07.363Z,1003.84
2023-02-21T10:15:07.367Z,1003.86
2023-02-21T10:16:07.518Z,1003.82
2023-02-21T10:17:07.278Z,1003.83
2023-02-21T10:18:08.277Z,1003.88
2023-02-21T10:19:07.282Z,1003.89
2023-02-21T10:20:08.267Z,1003.90
2023-02-21T10:21:07.259Z,1003.82
2023-02-21T10:22:07.214Z,1003.85
2023-02-21T10:23:07.235Z,1003.90
2023-02-21T10:24:08.219Z,1003.86
2023-02-21T10:25:07.231Z,1003.90
2023-02-21T10:26:07.228Z,1003.91
2023-02-21T10:27:07.223Z,1003.97
2023-02-21T10:28:07.146Z,1003.96
2023-02-21T10:29:08.160Z,1003.95
2023-02-21T10:30:08.219Z,1003.90
2023-02-21T10:31:07.235Z,1003.96
2023-02-21T10:32:07.186Z,1003.97
2023-02-21T10:33:07.147Z,1003.90
2023-02-21T10:34:08.135Z,1004.00
2023-02-21T10:35:07.096Z,1004.01
2023-02-21T10:36:07.095Z,1003.97
2023-02-21T10:37:07.089Z,1003.96
2023-02-21T10:38:07.091Z,1004.00
2023-02-21T10:39:07.047Z,1004.00
2023-02-21T10:40:09.176Z,1004.02
2023-02-21T10:41:07.034Z,1004.05
2023-02-21T10:42:07.058Z,1004.00
2023-02-21T10:43:07.047Z,1004.09
2023-02-21T10:44:07.036Z,1004.04
2023-02-21T10:45:07.992Z,1003.99
2023-02-21T10:46:06.969Z,1004.11
2023-02-21T10:47:07.013Z,1004.07
2023-02-21T10:48:06.961Z,1004.02
2023-02-21T10:49:06.987Z,1004.06
2023-02-21T10:50:06.914Z,1004.06
2023-02-21T10:51:06.947Z,1004.02
2023-02-21T10:52:07.917Z,1004.07
2023-02-21T10:53:06.930Z,1004.02
2023-02-21T10:54:06.900Z,1004.02
2023-02-21T10:55:06.843Z,1004.05
2023-02-21T10:56:06.869Z,1004.03
2023-02-21T10:57:07.841Z,1004.05
2023-02-21T10:58:07.914Z,1004.03
2023-02-21T10:59:06.841Z,1004.06
2023-02-21T11:00:06.804Z,1004.03
2023-02-21T11:01:06.854Z,1004.08
2023-02-21T11:02:06.857Z,1004.03
2023-02-21T11:03:07.780Z,1004.04
2023-02-21T11:04:06.786Z,1004.00
2023-02-21T11:05:07.753Z,1004.10
2023-02-21T11:06:06.796Z,1004.01
2023-02-21T11:07:06.752Z,1004.06
2023-02-21T11:08:06.741Z,1004.04
2023-02-21T11:09:07.748Z,1004.04
2023-02-21T11:10:06.700Z,1004.06
2023-02-21T11:11:06.718Z,1003.92
2023-02-21T11:12:06.663Z,1004.02
2023-02-21T11:13:06.749Z,1004.06
2023-02-21T11:14:06.638Z,1003.91
2023-02-21T11:15:06.660Z,1003.97
2023-02-21T11:16:07.707Z,1003.87
2023-02-21T11:17:07.615Z,1003.88
2023-02-21T11:18:06.610Z,1003.91
2023-02-21T11:19:06.639Z,1003.83
2023-02-21T11:20:06.584Z,1003.85
2023-02-21T11:21:07.572Z,1003.86
2023-02-21T11:22:06.637Z,1003.85
2023-02-21T11:23:06.581Z,1003.85
2023-02-21T11:24:06.522Z,1003.86
2023-02-21T11:25:06.558Z,1003.78
2023-02-21T11:26:06.581Z,1003.82
2023-02-21T11:27:06.509Z,1003.81
2023-02-21T11:28:06.528Z,1003.88
2023-02-21T11:29:06.486Z,1003.77
2023-02-21T11:30:06.518Z,1003.84
2023-02-21T11:31:06.545Z,1003.81
2023-02-21T11:32:06.526Z,1003.76
2023-02-21T11:33:06.461Z,1003.85
2023-02-21T11:34:06.433Z,1003.86
2023-02-21T11:35:06.469Z,1003.84
2023-02-21T11:36:06.409Z,1003.87
2023-02-21T11:37:06.405Z,1003.72
2023-02-21T11:38:07.477Z,1003.82
2023-02-21T11:39:06.494Z,1003.70
2023-02-21T11:40:07.391Z,1003.75
2023-02-21T11:41:06.525Z,1003.83
2023-02-21T11:42:06.419Z,1003.76
2023-02-21T11:43:06.377Z,1003.77
2023-02-21T11:44:07.342Z,1003.73
2023-02-21T11:45:06.361Z,1003.70
2023-02-21T11:46:07.331Z,1003.65
2023-02-21T11:47:06.283Z,1003.71
2023-02-21T11:48:07.305Z,1003.67
2023-02-21T11:49:06.269Z,1003.61
2023-02-21T11:50:06.333Z,1003.64
2023-02-21T11:51:06.280Z,1003.64
2023-02-21T11:52:06.281Z,1003.62
2023-02-21T11:53:07.254Z,1003.58
2023-02-21T11:54:06.252Z,1003.55
2023-02-21T11:55:07.238Z,1003.55
2023-02-21T11:56:07.194Z,1003.55
2023-02-21T11:57:06.215Z,1003.54
2023-02-21T11:58:06.178Z,1003.45
2023-02-21T11:59:06.147Z,1003.53
2023-02-21T12:00:06.147Z,1003.52
2023-02-21T12:01:07.161Z,1003.47
2023-02-21T12:02:06.256Z,1003.55
2023-02-21T12:03:06.148Z,1003.51
2023-02-21T12:04:06.135Z,1003.51
2023-02-21T12:05:06.113Z,1003.50